W13 weather

Public forecast

Using degrees Fahrenheit for public forecast. Weather courtesy of forecast.io.

Closest aviation weather report (METAR) to Eagle's Nest Airport

Closest report is Shenandoah Valley Regional Airport, 11.4 nm (21.2 km) NNE. Retrieved 2020/08/11 19:15 UTC (4 minutes ago):

KSHD 111915Z AUTO 16004KT 10SM CLR 31/21 A2999 RMK AO2 T03110207

Closest aviation forecast (TAF) to Eagle's Nest Airport

Closest forecast is Charlottesville Albemarle Airport, 23.5 nm (43.5 km) E. Retrieved 2020/08/11 18:42 UTC (37 minutes ago):

TAF KCHO 111741Z 1118/1218 19008KT P6SM VCSH SCT050 FM112200 19004KT P6SM SCT060 FM120900 00000KT 3SM BR SCT050 FM121300 00000KT P6SM SCT060 FM121600 VRB03KT P6SM -SHRA VCTS SCT050CB